Athens, Texas
Current Conditions -  °F | °C
As of 8:55 AM on Friday 19 Dec 2014 (Local Time) from KF44 Reporting Station
Light Rain Light Rain  
Wind Chill: 40°   Ceiling: 500
Heat Index: 45°   Visibility: 4mi
Dew Point: 45°   Wind: 8mph
Humidity: 100%   Direction: 80°E
Pressure: 30.15"   Gusts: NA
Location:  32.2°N, 95.85°W
Report Text: KF44 191455Z AUTO 08007KT 4SM -RA OVC005 07/07 A3015 RMK AO2 P0014
Loading
Personal Weather Stations






























Interactive Weather Map New forecast layout! Learn more

10-Day Weather Forecast

Advertisements
Track Severe Weather on mobile